Time;durP1;ratioP1;P1;durP2;ratioP2;P2;SDS_P1;SDS_P2;PMS_P1;PMS_P2;Temp;Humidity;BMP_temperature;BMP_pressure;BME280_temperature;BME280_humidity;BME280_pressure;Samples;Min_cycle;Max_cycle;Signal;HPM_P1;HPM_P2
2021/03/10 00:00:30;;;;;;;39.55;19.65;;;;;;;7.43;60.17;97340.13;5011387;28;20025;-76
2021/03/10 00:02:56;;;;;;;44.67;21.77;;;;;;;7.46;59.79;97338.91;5006922;28;20029;-76
2021/03/10 00:05:21;;;;;;;39.63;19.77;;;;;;;7.50;59.97;97338.25;5027795;28;20067;-77
2021/03/10 00:07:46;;;;;;;39.97;19.60;;;;;;;7.52;59.72;97345.78;5010859;28;20036;-76
2021/03/10 00:10:13;;;;;;;40.85;20.80;;;;;;;7.48;60.25;97347.25;5059720;28;20029;-76
2021/03/10 00:12:40;;;;;;;43.30;21.05;;;;;;;7.49;60.08;97348.84;5021910;28;20033;-77
2021/03/10 00:15:08;;;;;;;44.22;21.05;;;;;;;7.53;59.59;97347.38;5015233;28;20028;-76
2021/03/10 00:17:33;;;;;;;43.15;21.15;;;;;;;7.59;60.27;97338.72;5020706;28;20501;-76
2021/03/10 00:20:00;;;;;;;43.08;21.48;;;;;;;7.49;60.40;97339.25;5026525;28;20060;-76
2021/03/10 00:22:26;;;;;;;44.28;20.33;;;;;;;7.55;60.65;97332.41;5024199;28;20195;-76
2021/03/10 00:24:51;;;;;;;44.90;20.58;;;;;;;7.56;60.86;97338.38;5025640;28;20037;-76
2021/03/10 00:27:26;;;;;;;48.17;22.65;;;;;;;7.53;60.68;97338.81;5030365;28;20654;-76
2021/03/10 00:29:59;;;;;;;46.35;21.33;;;;;;;7.17;61.34;97338.66;5033111;28;20090;-76
2021/03/10 00:32:26;;;;;;;47.63;22.35;;;;;;;7.39;60.73;97343.38;5027685;28;20071;-76
2021/03/10 00:34:52;;;;;;;42.75;21.60;;;;;;;7.46;60.18;97346.69;5033492;28;20408;-76
2021/03/10 00:37:19;;;;;;;48.28;21.75;;;;;;;7.42;60.73;97346.34;5046998;28;20178;-76
2021/03/10 00:39:45;;;;;;;47.40;21.70;;;;;;;7.46;60.20;97352.63;5031878;28;20538;-76
2021/03/10 00:42:10;;;;;;;36.92;18.75;;;;;;;7.50;59.77;97355.56;5030943;28;20033;-76
2021/03/10 00:44:36;;;;;;;45.15;21.17;;;;;;;7.48;59.84;97352.44;5049592;28;20034;-77
2021/03/10 00:47:03;;;;;;;39.15;18.45;;;;;;;7.51;60.34;97354.59;5031016;28;20498;-77
2021/03/10 00:49:28;;;;;;;43.58;21.52;;;;;;;7.53;60.07;97347.38;5021123;28;20032;-77
2021/03/10 00:51:53;;;;;;;48.13;22.13;;;;;;;7.50;60.21;97345.22;5067570;28;20120;-76
2021/03/10 00:54:19;;;;;;;41.33;19.95;;;;;;;7.53;60.62;97352.56;5033194;28;20112;-77
2021/03/10 00:56:44;;;;;;;43.92;22.23;;;;;;;7.56;60.48;97352.13;5049424;28;20481;-76
2021/03/10 00:59:10;;;;;;;43.25;20.63;;;;;;;7.53;60.56;97357.75;5049589;28;20030;-76
2021/03/10 01:01:35;;;;;;;41.05;21.05;;;;;;;7.54;60.50;97353.34;5032691;28;20025;-77
2021/03/10 01:04:02;;;;;;;42.45;20.35;;;;;;;7.47;60.78;97358.59;5033716;28;20021;-76
2021/03/10 01:06:27;;;;;;;45.42;22.77;;;;;;;7.55;60.20;97355.72;5008231;28;20048;-77
2021/03/10 01:08:54;;;;;;;38.55;21.38;;;;;;;7.64;59.78;97362.19;5031202;28;20045;-76
2021/03/10 01:11:20;;;;;;;43.35;20.92;;;;;;;7.60;60.08;97360.25;5027992;28;20032;-76
2021/03/10 01:13:46;;;;;;;45.28;21.70;;;;;;;7.56;60.61;97353.94;5046112;28;20028;-77
2021/03/10 01:16:13;;;;;;;40.10;20.80;;;;;;;7.58;60.03;97354.50;5043299;28;20036;-76
2021/03/10 01:18:41;;;;;;;45.35;21.65;;;;;;;7.40;59.96;97325.03;5031582;28;20031;-76
2021/03/10 01:21:07;;;;;;;37.20;18.60;;;;;;;7.50;60.49;97356.38;5006384;28;20116;-76
2021/03/10 01:23:32;;;;;;;40.17;22.17;;;;;;;7.45;60.26;97345.09;5036125;28;20033;-76
2021/03/10 01:25:58;;;;;;;42.55;21.67;;;;;;;7.43;60.52;97339.34;5013087;28;20024;-76
2021/03/10 01:28:24;;;;;;;42.85;22.73;;;;;;;7.41;60.77;97336.19;5025942;28;20047;-77
2021/03/10 01:30:52;;;;;;;44.05;21.67;;;;;;;7.38;60.83;97337.41;5048504;28;20149;-76
2021/03/10 01:33:18;;;;;;;48.40;22.65;;;;;;;7.41;61.35;97336.97;5048612;28;20087;-76
2021/03/10 01:35:43;;;;;;;42.28;20.70;;;;;;;7.38;61.32;97334.03;5047743;28;20036;-76
2021/03/10 01:38:08;;;;;;;46.95;22.20;;;;;;;7.36;61.07;97339.41;5028775;28;20037;-76
2021/03/10 01:40:34;;;;;;;41.85;21.13;;;;;;;7.40;60.82;97335.41;5044043;28;20028;-77
2021/03/10 01:43:06;;;;;;;43.15;22.35;;;;;;;7.13;60.62;97337.53;5044081;28;20040;-76
2021/03/10 01:45:33;;;;;;;45.00;21.92;;;;;;;7.33;60.91;97329.50;5023878;28;20492;-76
2021/03/10 01:47:59;;;;;;;45.67;22.48;;;;;;;7.32;61.38;97322.75;5016222;28;20086;-76
2021/03/10 01:50:27;;;;;;;42.13;21.50;;;;;;;7.41;61.57;97328.41;5031021;28;20402;-76
2021/03/10 01:52:54;;;;;;;45.38;22.73;;;;;;;7.47;60.29;97320.56;5029710;28;20033;-76
2021/03/10 01:55:21;;;;;;;41.20;21.15;;;;;;;7.47;60.79;97319.75;5034563;28;20061;-77
2021/03/10 01:57:47;;;;;;;46.45;22.42;;;;;;;7.46;60.72;97323.38;5026171;28;20060;-77
2021/03/10 02:00:13;;;;;;;43.00;21.45;;;;;;;7.36;60.12;97323.09;5047509;28;20068;-77
2021/03/10 02:02:40;;;;;;;44.47;23.23;;;;;;;7.37;60.83;97329.84;5029414;28;20033;-76
2021/03/10 02:05:06;;;;;;;44.10;21.55;;;;;;;7.45;60.64;97319.19;5016871;28;20036;-76
2021/03/10 02:07:59;;;;;;;47.55;22.35;;;;;;;7.16;60.67;97334.47;5033588;28;20108;-76
2021/03/10 02:10:45;;;;;;;49.78;24.30;;;;;;;7.32;61.67;97336.47;5023430;28;20032;-76
2021/03/10 02:13:16;;;;;;;;;;;;;;;6.93;61.15;97337.75;5036444;28;20090;-76
2021/03/10 02:15:49;;;;;;;41.67;19.85;;;;;;;7.23;60.49;97344.75;5002059;28;19916;-76
2021/03/10 02:18:27;;;;;;;40.50;20.42;;;;;;;7.16;60.83;97342.25;5010937;28;20484;-76
2021/03/10 02:20:58;;;;;;;44.38;22.48;;;;;;;7.20;60.82;97342.63;5015553;28;20117;-76
2021/03/10 02:23:49;;;;;;;44.72;21.13;;;;;;;7.16;60.37;97344.06;5032882;28;20035;-77
2021/03/10 02:26:34;;;;;;;42.65;22.13;;;;;;;7.15;60.65;97340.69;5060254;28;20028;-76
2021/03/10 02:29:05;;;;;;;41.72;18.98;;;;;;;7.21;60.51;97347.56;5033951;28;20024;-76
2021/03/10 02:31:34;;;;;;;47.42;22.85;;;;;;;7.16;60.74;97352.59;5018623;28;20032;-77
2021/03/10 02:34:00;;;;;;;44.42;20.48;;;;;;;7.25;60.77;97353.13;5050289;28;20054;-76
2021/03/10 02:36:26;;;;;;;43.10;20.88;;;;;;;7.27;60.78;97351.09;5050586;28;20031;-76
2021/03/10 02:38:52;;;;;;;40.55;20.20;;;;;;;7.37;60.61;97348.78;5032127;28;20033;-76
2021/03/10 02:41:18;;;;;;;44.10;20.90;;;;;;;7.39;60.34;97343.38;5032311;28;20033;-76
2021/03/10 02:43:45;;;;;;;42.28;20.73;;;;;;;7.28;60.72;97342.31;5019300;28;20041;-76
2021/03/10 02:46:11;;;;;;;41.95;22.42;;;;;;;7.30;60.71;97342.91;5035772;28;20059;-76
2021/03/10 02:48:37;;;;;;;45.60;21.77;;;;;;;7.38;60.78;97340.00;5034550;28;20418;-76
2021/03/10 02:51:06;;;;;;;45.20;21.50;;;;;;;7.27;60.96;97340.75;5040339;28;20029;-77
2021/03/10 02:53:32;;;;;;;43.92;21.80;;;;;;;7.31;60.64;97342.66;5016005;28;20029;-76
2021/03/10 02:55:57;;;;;;;45.83;21.02;;;;;;;7.38;60.71;97332.22;5032208;28;20051;-76
2021/03/10 02:58:23;;;;;;;42.42;22.45;;;;;;;7.36;60.96;97346.41;5007508;28;20054;-77
2021/03/10 03:00:48;;;;;;;46.25;21.60;;;;;;;7.21;61.13;97346.78;5031921;28;20400;-76
2021/03/10 03:03:15;;;;;;;45.90;22.00;;;;;;;7.07;61.32;97353.91;5031593;28;20037;-77
2021/03/10 03:05:40;;;;;;;43.70;21.52;;;;;;;7.07;61.96;97364.28;5035901;28;20024;-76
2021/03/10 03:08:06;;;;;;;39.38;20.98;;;;;;;7.04;61.52;97351.75;5036911;28;20036;-77
2021/03/10 03:10:35;;;;;;;36.08;20.15;;;;;;;6.83;61.50;97355.59;5045392;28;20036;-77
2021/03/10 03:13:04;;;;;;;44.28;19.52;;;;;;;6.92;61.47;97346.50;5031643;28;20086;-76
2021/03/10 03:15:30;;;;;;;39.08;19.15;;;;;;;6.93;61.66;97345.53;5017429;28;20119;-77
2021/03/10 03:17:56;;;;;;;45.00;20.50;;;;;;;6.88;61.45;97351.34;5026760;28;20503;-77
2021/03/10 03:20:24;;;;;;;40.85;20.42;;;;;;;6.77;61.65;97348.66;5036337;28;20611;-77
2021/03/10 03:22:54;;;;;;;40.15;19.63;;;;;;;6.68;61.98;97351.56;5032694;28;20032;-76
2021/03/10 03:25:23;;;;;;;37.30;20.55;;;;;;;6.81;61.88;97352.44;5018286;28;20497;-76
2021/03/10 03:27:50;;;;;;;40.92;20.92;;;;;;;6.78;61.76;97347.66;5026848;28;20522;-76
2021/03/10 03:30:17;;;;;;;39.17;20.70;;;;;;;6.75;61.78;97349.69;5016996;28;20502;-76
2021/03/10 03:32:44;;;;;;;47.97;22.08;;;;;;;6.74;62.40;97349.91;5042200;28;20196;-76
2021/03/10 03:35:10;;;;;;;43.17;21.25;;;;;;;6.70;62.32;97330.63;5023545;28;20025;-77
2021/03/10 03:37:37;;;;;;;43.67;21.48;;;;;;;6.74;62.21;97349.91;5037678;28;20120;-76
2021/03/10 03:40:09;;;;;;;41.50;20.48;;;;;;;6.79;62.55;97350.06;5029838;28;20458;-76
2021/03/10 03:42:34;;;;;;;43.88;20.95;;;;;;;6.83;62.32;97356.38;5015217;28;20029;-76
2021/03/10 03:45:00;;;;;;;41.10;20.73;;;;;;;6.75;61.58;97354.06;5019744;28;20033;-77
2021/03/10 03:47:26;;;;;;;37.92;19.75;;;;;;;6.79;61.90;97360.41;4985044;28;20053;-76
2021/03/10 03:49:51;;;;;;;37.20;18.27;;;;;;;6.76;61.85;97366.00;5023905;28;20044;-76
2021/03/10 03:52:17;;;;;;;42.40;21.25;;;;;;;6.79;61.62;97360.41;5048970;28;20032;-76
2021/03/10 03:54:42;;;;;;;44.22;20.92;;;;;;;6.80;61.96;97368.94;5023249;28;20045;-76
2021/03/10 03:57:08;;;;;;;40.72;19.20;;;;;;;6.78;61.62;97374.34;5000929;28;20095;-76
2021/03/10 03:59:35;;;;;;;44.60;20.08;;;;;;;6.70;61.99;97361.66;5028080;28;20144;-76
2021/03/10 04:02:00;;;;;;;42.88;20.77;;;;;;;6.75;62.06;97374.75;5016626;28;20100;-76
2021/03/10 04:04:26;;;;;;;42.97;20.70;;;;;;;6.77;62.23;97377.13;4997149;28;20025;-77
2021/03/10 04:06:51;;;;;;;40.60;21.02;;;;;;;6.71;62.31;97374.41;5012278;28;20361;-77
2021/03/10 04:09:16;;;;;;;47.70;22.05;;;;;;;6.67;62.45;97375.06;4996508;28;20025;-76
2021/03/10 04:11:43;;;;;;;41.78;20.85;;;;;;;6.66;62.77;97370.88;5014899;28;20042;-76
2021/03/10 04:14:09;;;;;;;40.65;20.67;;;;;;;6.75;62.80;97367.81;4994631;28;20092;-76
2021/03/10 04:16:34;;;;;;;44.85;22.73;;;;;;;6.82;62.94;97372.91;5014855;28;20460;-76
2021/03/10 04:19:00;;;;;;;46.22;22.25;;;;;;;6.71;62.89;97363.25;4990159;28;20507;-77
2021/03/10 04:21:25;;;;;;;48.95;22.80;;;;;;;6.75;62.50;97359.22;5015498;28;20029;-77
2021/03/10 04:23:50;;;;;;;43.92;22.58;;;;;;;6.85;62.95;97371.69;5005663;28;20139;-76
2021/03/10 04:26:16;;;;;;;40.03;19.83;;;;;;;6.83;62.37;97371.91;5034958;28;20068;-76
2021/03/10 04:28:41;;;;;;;43.08;20.52;;;;;;;6.84;62.92;97373.50;5012297;28;20627;-76
2021/03/10 04:31:06;;;;;;;42.90;20.75;;;;;;;6.91;61.91;97378.59;5031158;28;20037;-77
2021/03/10 04:33:31;;;;;;;44.65;22.00;;;;;;;6.91;61.97;97379.38;5026368;28;20049;-76
2021/03/10 04:35:57;;;;;;;41.42;20.50;;;;;;;6.89;62.42;97371.03;5014018;28;20485;-77
2021/03/10 04:38:22;;;;;;;41.35;20.25;;;;;;;6.90;62.45;97382.97;5016065;28;20095;-76
2021/03/10 04:40:47;;;;;;;44.83;22.20;;;;;;;6.89;62.32;97384.00;5011686;28;20048;-76
2021/03/10 04:43:13;;;;;;;43.80;21.60;;;;;;;6.88;62.47;97382.41;5025241;28;20123;-77
2021/03/10 04:45:38;;;;;;;42.78;20.98;;;;;;;6.86;62.90;97376.66;5061257;28;20083;-76
2021/03/10 04:48:04;;;;;;;45.97;20.98;;;;;;;6.86;62.47;97389.59;5029209;28;20132;-76
2021/03/10 04:50:29;;;;;;;40.47;21.73;;;;;;;6.82;62.52;97380.69;5033019;28;20063;-76
2021/03/10 04:52:55;;;;;;;45.03;21.02;;;;;;;6.92;62.28;97382.75;5049714;28;20032;-77
2021/03/10 04:55:20;;;;;;;44.85;20.95;;;;;;;6.85;62.87;97380.22;5023179;28;20052;-76
2021/03/10 04:57:45;;;;;;;44.80;22.10;;;;;;;7.01;61.64;97388.44;5031110;28;20143;-77
2021/03/10 05:00:11;;;;;;;43.25;21.73;;;;;;;6.87;61.51;97382.59;5043552;28;20087;-77
2021/03/10 05:02:38;;;;;;;47.88;22.67;;;;;;;6.81;62.14;97388.66;5032341;28;20036;-77
2021/03/10 05:05:08;;;;;;;47.92;22.88;;;;;;;6.82;62.13;97393.63;5036261;28;20025;-77
2021/03/10 05:07:33;;;;;;;41.05;21.77;;;;;;;7.04;62.03;97391.41;5036925;28;20036;-76
2021/03/10 05:09:59;;;;;;;45.50;21.45;;;;;;;6.92;62.24;97398.28;5034788;28;20357;-76
2021/03/10 05:12:29;;;;;;;46.20;23.25;;;;;;;6.86;62.17;97393.97;5032578;28;20431;-77
2021/03/10 05:14:55;;;;;;;46.47;23.92;;;;;;;6.82;62.29;97392.81;5037153;28;20029;-77
2021/03/10 05:17:20;;;;;;;45.50;22.60;;;;;;;6.85;62.08;97406.13;5050557;28;20616;-77
2021/03/10 05:19:45;;;;;;;46.53;21.70;;;;;;;6.88;62.79;97410.88;5026079;28;20033;-77
2021/03/10 05:22:11;;;;;;;44.60;19.92;;;;;;;6.83;62.90;97402.94;5041295;28;20313;-77
2021/03/10 05:24:36;;;;;;;46.03;21.23;;;;;;;6.67;62.53;97398.34;5048926;28;20437;-76
2021/03/10 05:27:02;;;;;;;46.75;22.83;;;;;;;6.59;63.02;97393.44;5053906;28;20183;-76
2021/03/10 05:29:27;;;;;;;46.75;23.42;;;;;;;6.55;63.00;97393.84;5031596;28;20028;-76
2021/03/10 05:31:52;;;;;;;47.58;22.30;;;;;;;6.57;62.67;97407.38;5035113;28;20032;-76
2021/03/10 05:34:17;;;;;;;45.47;22.17;;;;;;;6.56;62.33;97403.22;5032414;28;20423;-76
2021/03/10 05:36:43;;;;;;;46.58;23.10;;;;;;;6.63;62.82;97407.53;5051286;28;20455;-76
2021/03/10 05:39:08;;;;;;;42.08;21.33;;;;;;;6.63;62.32;97399.75;5029139;28;20800;-76
2021/03/10 05:41:34;;;;;;;46.22;23.15;;;;;;;6.64;62.88;97402.13;5047428;28;20047;-77
2021/03/10 05:43:59;;;;;;;47.83;22.58;;;;;;;6.65;62.58;97405.50;5014736;28;20104;-76
2021/03/10 05:46:25;;;;;;;47.80;22.27;;;;;;;6.63;62.22;97417.88;4991593;28;20028;-76
2021/03/10 05:48:51;;;;;;;49.38;22.30;;;;;;;6.43;63.14;97413.66;5014210;28;20029;-76
2021/03/10 05:51:18;;;;;;;45.45;21.88;;;;;;;6.45;63.15;97416.03;5006767;28;20037;-76
2021/03/10 05:53:43;;;;;;;44.30;20.88;;;;;;;6.56;62.43;97418.72;5029207;28;20021;-77
2021/03/10 05:56:09;;;;;;;48.30;24.80;;;;;;;6.53;63.17;97416.56;5012783;28;20040;-77
2021/03/10 05:58:34;;;;;;;45.95;23.13;;;;;;;6.52;62.99;97416.78;4999826;28;20033;-77
2021/03/10 06:00:59;;;;;;;42.33;22.20;;;;;;;6.55;62.79;97427.50;5021851;28;20025;-76
2021/03/10 06:03:25;;;;;;;42.83;20.90;;;;;;;6.50;63.20;97423.97;5001330;28;20056;-77
2021/03/10 06:06:01;;;;;;;47.22;22.30;;;;;;;6.30;62.66;97416.34;5010698;28;20140;-77
2021/03/10 06:08:33;;;;;;;43.47;21.50;;;;;;;6.34;63.45;97422.66;5011709;28;20064;-77
2021/03/10 06:10:59;;;;;;;50.85;23.00;;;;;;;6.58;62.71;97428.88;4992471;28;20116;-76
2021/03/10 06:13:28;;;;;;;49.58;23.30;;;;;;;6.58;63.00;97426.28;5002564;28;20120;-77
2021/03/10 06:15:56;;;;;;;45.17;23.08;;;;;;;6.61;63.28;97420.66;5018836;28;20041;-77
2021/03/10 06:18:25;;;;;;;52.65;25.40;;;;;;;6.70;62.72;97427.16;5003441;28;20040;-76
2021/03/10 06:21:07;;;;;;;49.55;23.67;;;;;;;6.48;63.46;97426.75;5019912;28;20447;-76
2021/03/10 06:23:34;;;;;;;48.03;23.45;;;;;;;6.70;63.51;97424.59;4998327;28;20029;-76
2021/03/10 06:26:01;;;;;;;52.85;25.33;;;;;;;6.86;63.13;97417.28;5008475;28;20033;-77
2021/03/10 06:28:54;;;;;;;53.65;25.10;;;;;;;6.52;63.91;97416.78;5013495;28;20033;-76
2021/03/10 06:31:29;;;;;;;49.65;24.02;;;;;;;6.68;62.91;97407.66;5001837;28;20111;-76
2021/03/10 06:34:04;;;;;;;48.05;22.73;;;;;;;6.77;62.33;97424.53;4999348;28;20061;-76
2021/03/10 06:36:35;;;;;;;49.05;22.92;;;;;;;6.93;62.90;97421.38;5012521;28;20029;-77
2021/03/10 06:39:01;;;;;;;50.00;23.25;;;;;;;7.08;62.90;97428.00;5003524;28;20195;-76
2021/03/10 06:41:47;;;;;;;54.35;24.63;;;;;;;6.73;62.98;97428.53;5031827;28;20119;-77
2021/03/10 06:44:13;;;;;;;;;;;;;;;6.57;64.01;97437.63;5044801;28;20049;-77
2021/03/10 06:47:02;;;;;;;52.38;26.48;;;;;;;6.71;63.65;97431.31;5017993;28;19909;-77
2021/03/10 06:49:29;;;;;;;52.20;24.58;;;;;;;7.18;62.19;97436.06;4997504;28;20234;-77
2021/03/10 06:51:59;;;;;;;51.78;24.33;;;;;;;7.00;62.88;97443.81;4995090;28;20064;-76
2021/03/10 06:54:26;;;;;;;50.65;23.98;;;;;;;7.37;62.09;97451.59;5013172;28;20423;-77
2021/03/10 06:57:06;;;;;;;48.30;23.55;;;;;;;7.24;61.59;97448.13;5011855;28;20033;-76
2021/03/10 06:59:41;;;;;;;51.58;25.60;;;;;;;7.21;61.69;97445.19;5013720;28;20455;-76
2021/03/10 07:02:14;;;;;;;47.92;23.10;;;;;;;7.31;62.47;97443.69;5030213;28;20362;-76
2021/03/10 07:04:47;;;;;;;52.10;24.15;;;;;;;7.43;61.83;97451.50;5006063;28;20537;-76
2021/03/10 07:07:14;;;;;;;50.88;24.35;;;;;;;7.66;60.86;97442.31;5014360;28;20326;-76
2021/03/10 07:09:40;;;;;;;53.05;23.48;;;;;;;7.79;60.53;97446.50;5011863;28;20037;-76
2021/03/10 07:12:09;;;;;;;48.17;23.35;;;;;;;7.72;59.70;97462.16;5016478;28;20087;-76
2021/03/10 07:14:36;;;;;;;51.80;24.13;;;;;;;7.86;60.17;97465.34;5008865;28;20261;-77
2021/03/10 07:17:06;;;;;;;48.05;23.33;;;;;;;7.68;59.98;97463.59;5015989;28;20037;-77
2021/03/10 07:19:32;;;;;;;47.50;23.20;;;;;;;7.86;60.46;97467.94;4994260;28;20033;-76
2021/03/10 07:22:03;;;;;;;50.17;25.55;;;;;;;7.69;60.85;97465.16;5020993;28;20033;-77
2021/03/10 07:24:52;;;;;;;51.33;24.75;;;;;;;7.88;60.13;97476.28;5008948;28;20029;-76
2021/03/10 07:27:19;;;;;;;50.85;26.02;;;;;;;7.94;60.51;97467.66;5030285;28;20518;-76
2021/03/10 07:29:45;;;;;;;50.78;24.90;;;;;;;7.92;61.04;97477.47;5006282;28;20117;-76
2021/03/10 07:32:10;;;;;;;50.55;24.15;;;;;;;8.15;60.98;97486.31;4995133;28;20124;-76
2021/03/10 07:34:37;;;;;;;51.22;25.45;;;;;;;7.96;60.73;97483.78;5005908;28;20844;-76
2021/03/10 07:37:16;;;;;;;56.20;26.15;;;;;;;7.91;61.08;97488.03;5000042;28;20124;-76
2021/03/10 07:39:42;;;;;;;47.15;24.02;;;;;;;8.19;59.71;97484.88;4990317;28;20029;-77
2021/03/10 07:42:13;;;;;;;54.13;26.50;;;;;;;8.24;60.07;97485.00;5015615;28;20518;-77
2021/03/10 07:44:39;;;;;;;50.63;24.73;;;;;;;8.37;59.28;97494.41;5031653;28;20029;-76
2021/03/10 07:47:10;;;;;;;50.17;26.77;;;;;;;8.39;60.13;97497.56;5039811;28;20232;-76
2021/03/10 07:49:37;;;;;;;57.22;27.98;;;;;;;8.35;60.74;97501.63;5047532;28;20063;-76
2021/03/10 07:52:13;;;;;;;53.03;26.30;;;;;;;8.17;60.13;97502.47;5030909;28;20040;-77
2021/03/10 07:54:40;;;;;;;53.95;26.08;;;;;;;8.52;59.14;97507.78;5029086;28;20036;-76
2021/03/10 07:57:16;;;;;;;58.35;27.73;;;;;;;8.52;59.50;97504.41;5033143;28;20550;-76
2021/03/10 07:59:56;;;;;;;57.65;27.90;;;;;;;8.23;59.51;97486.03;5026271;28;20491;-76
2021/03/10 08:02:23;;;;;;;58.55;27.45;;;;;;;8.56;59.81;97500.34;5016341;28;20059;-76
2021/03/10 08:04:56;;;;;;;58.75;29.13;;;;;;;8.39;60.17;97497.56;5029912;28;20058;-76
2021/03/10 08:07:30;;;;;;;62.00;29.67;;;;;;;8.34;60.48;97495.63;5029004;28;20079;-77
2021/03/10 08:09:56;;;;;;;60.05;28.33;;;;;;;8.65;60.00;97486.00;5032028;28;20376;-77
2021/03/10 08:12:38;;;;;;;54.70;26.80;;;;;;;8.55;59.27;97491.78;5032186;28;20077;-76
2021/03/10 08:15:05;;;;;;;55.10;27.13;;;;;;;8.90;57.28;97493.59;5003451;28;20040;-76
2021/03/10 08:17:31;;;;;;;61.53;27.75;;;;;;;8.94;59.13;97494.72;5048654;28;20087;-76
2021/03/10 08:19:58;;;;;;;55.55;27.27;;;;;;;8.79;59.38;97500.38;5027344;28;20021;-77
2021/03/10 08:22:26;;;;;;;59.53;28.83;;;;;;;9.13;58.83;97498.03;5033451;28;20037;-76
2021/03/10 08:24:59;;;;;;;56.28;28.50;;;;;;;9.09;59.12;97499.47;5023078;28;20052;-77
2021/03/10 08:27:31;;;;;;;52.35;26.35;;;;;;;9.19;58.71;97504.91;5053359;28;20122;-76
2021/03/10 08:29:57;;;;;;;53.58;26.05;;;;;;;9.53;57.07;97502.50;5049449;28;20043;-76
2021/03/10 08:32:25;;;;;;;52.40;26.85;;;;;;;9.56;57.75;97512.44;5039466;28;20029;-77
2021/03/10 08:34:50;;;;;;;55.45;29.42;;;;;;;9.59;57.36;97513.78;5032512;28;20459;-76
2021/03/10 08:37:18;;;;;;;54.60;27.45;;;;;;;9.81;57.33;97521.75;5018214;28;20392;-76
2021/03/10 08:39:46;;;;;;;48.90;26.27;;;;;;;10.00;56.52;97519.78;5010996;28;20146;-76
2021/03/10 08:42:11;;;;;;;53.20;27.17;;;;;;;10.11;56.35;97503.34;5029590;28;20120;-76
2021/03/10 08:44:45;;;;;;;53.38;27.23;;;;;;;10.06;55.63;97515.47;5024058;28;20468;-76
2021/03/10 08:47:19;;;;;;;45.75;26.23;;;;;;;10.12;55.67;97510.09;5030928;28;20024;-76
2021/03/10 08:49:49;;;;;;;48.92;26.15;;;;;;;10.38;55.76;97502.78;5023760;28;20503;-76
2021/03/10 08:52:15;;;;;;;47.45;25.52;;;;;;;10.50;55.18;97510.53;5037319;28;20083;-76
2021/03/10 08:54:54;;;;;;;45.13;24.27;;;;;;;10.51;55.34;97508.72;5040081;28;20494;-76
2021/03/10 08:57:24;;;;;;;50.03;25.23;;;;;;;10.55;54.60;97502.78;5032131;28;20368;-76
2021/03/10 08:59:50;;;;;;;51.65;26.60;;;;;;;10.70;54.48;97498.88;5023148;28;20040;-76
2021/03/10 09:02:15;;;;;;;44.75;23.25;;;;;;;10.79;53.76;97503.44;5023190;28;20025;-76
2021/03/10 09:04:48;;;;;;;42.17;23.20;;;;;;;10.45;54.18;97492.22;5024437;28;20043;-76
2021/03/10 09:07:18;;;;;;;45.20;25.35;;;;;;;10.49;54.61;97496.72;5030182;28;20470;-76
2021/03/10 09:09:43;;;;;;;43.10;23.88;;;;;;;10.65;54.41;97497.75;5050352;28;20063;-76
2021/03/10 09:12:09;;;;;;;50.58;25.35;;;;;;;10.57;54.54;97497.34;5017323;28;20037;-76
2021/03/10 09:14:36;;;;;;;45.33;25.13;;;;;;;10.61;54.52;97499.25;5024639;28;20029;-77
2021/03/10 09:17:01;;;;;;;46.78;24.63;;;;;;;10.49;54.84;97490.75;5021545;28;20044;-76
2021/03/10 09:19:45;;;;;;;44.08;23.67;;;;;;;10.28;55.17;97500.78;5021586;28;20029;-77
2021/03/10 09:22:23;;;;;;;43.42;23.75;;;;;;;10.57;54.37;97500.75;5021031;28;20088;-77
2021/03/10 09:24:52;;;;;;;47.63;25.98;;;;;;;10.72;54.00;97500.22;5033055;28;20498;-76
2021/03/10 09:27:26;;;;;;;50.28;24.88;;;;;;;10.54;54.30;97498.63;5038123;28;20423;-76
2021/03/10 09:29:53;;;;;;;48.72;25.33;;;;;;;10.80;54.14;97497.22;5017878;28;20362;-76
2021/03/10 09:32:19;;;;;;;45.42;25.73;;;;;;;10.74;54.19;97495.53;5053174;28;20056;-77
2021/03/10 09:34:49;;;;;;;43.00;24.70;;;;;;;10.56;54.13;97496.59;5034809;28;20067;-77
2021/03/10 09:37:14;;;;;;;43.55;25.02;;;;;;;10.91;53.53;97486.94;5031021;28;20067;-77
2021/03/10 09:39:47;;;;;;;47.17;23.85;;;;;;;10.87;53.49;97489.25;5036140;28;20032;-76
2021/03/10 09:42:14;;;;;;;45.35;25.33;;;;;;;11.01;53.86;97489.69;5015604;28;20026;-76
2021/03/10 09:44:41;;;;;;;42.83;23.63;;;;;;;11.05;53.43;97494.19;5021338;28;20037;-76
2021/03/10 09:47:17;;;;;;;45.63;24.73;;;;;;;10.60;53.83;97489.88;5000843;28;20063;-77
2021/03/10 09:49:47;;;;;;;46.75;25.58;;;;;;;10.74;53.52;97492.16;5027624;28;20043;-77
2021/03/10 09:52:12;;;;;;;44.03;24.13;;;;;;;11.03;53.29;97492.84;4995753;28;20125;-77
2021/03/10 09:54:58;;;;;;;44.53;23.83;;;;;;;10.65;53.37;97502.19;5004078;28;20108;-76
2021/03/10 09:57:30;;;;;;;47.97;24.23;;;;;;;11.04;52.83;97491.84;5008293;28;20136;-76
2021/03/10 09:59:58;;;;;;;43.28;24.08;;;;;;;10.97;53.11;97484.19;4986009;28;20033;-77
2021/03/10 10:02:31;;;;;;;45.65;24.52;;;;;;;11.06;53.00;97485.34;5011456;28;20432;-76
2021/03/10 10:05:03;;;;;;;42.25;23.52;;;;;;;10.88;52.84;97472.56;5043123;28;20029;-77
2021/03/10 10:07:30;;;;;;;42.40;24.10;;;;;;;11.19;52.84;97475.59;5031486;28;20475;-76
2021/03/10 10:09:57;;;;;;;43.88;23.13;;;;;;;11.36;51.84;97481.59;5010244;28;20025;-77
2021/03/10 10:12:25;;;;;;;45.35;23.73;;;;;;;11.41;52.02;97479.03;5008612;28;20548;-76
2021/03/10 10:14:52;;;;;;;44.35;22.98;;;;;;;11.39;51.54;97481.06;5002307;28;20037;-77
2021/03/10 10:17:19;;;;;;;43.03;23.35;;;;;;;11.52;51.58;97479.16;5013115;28;20534;-76
2021/03/10 10:19:46;;;;;;;43.10;23.85;;;;;;;11.53;51.23;97478.94;4998736;28;20032;-76
2021/03/10 10:22:12;;;;;;;43.17;23.50;;;;;;;11.65;51.07;97486.59;5015132;28;20092;-77
2021/03/10 10:24:37;;;;;;;45.72;24.25;;;;;;;11.60;51.21;97476.09;4999829;28;20175;-76
2021/03/10 10:27:06;;;;;;;46.45;24.65;;;;;;;11.71;51.25;97483.03;5028099;28;20028;-76
2021/03/10 10:29:32;;;;;;;44.55;25.08;;;;;;;11.79;51.03;97474.78;5004870;28;20039;-76
2021/03/10 10:31:58;;;;;;;44.08;23.98;;;;;;;11.90;50.93;97472.28;5012061;28;20021;-76
2021/03/10 10:34:24;;;;;;;42.75;24.08;;;;;;;11.99;50.65;97468.22;4999462;28;20196;-77
2021/03/10 10:36:51;;;;;;;44.13;23.80;;;;;;;12.15;50.58;97461.34;5012031;28;20036;-76
2021/03/10 10:39:18;;;;;;;45.00;25.48;;;;;;;12.15;50.15;97469.19;5031659;28;20052;-77
2021/03/10 10:41:44;;;;;;;42.53;24.48;;;;;;;12.34;49.95;97465.16;5022729;28;20033;-76
2021/03/10 10:44:10;;;;;;;45.75;25.85;;;;;;;12.44;49.57;97472.31;5021062;28;20042;-76
2021/03/10 10:46:37;;;;;;;43.05;23.80;;;;;;;12.64;48.69;97473.50;5012348;28;20029;-77
2021/03/10 10:49:03;;;;;;;44.92;25.73;;;;;;;12.65;49.57;97470.63;5038520;28;20118;-77
2021/03/10 10:51:30;;;;;;;44.60;24.98;;;;;;;12.50;50.00;97463.47;5021483;28;20029;-76
2021/03/10 10:53:59;;;;;;;43.00;23.23;;;;;;;12.52;49.21;97461.38;5012001;28;20032;-77
2021/03/10 10:56:26;;;;;;;38.50;22.75;;;;;;;12.82;49.54;97464.50;4988360;28;20346;-76
2021/03/10 10:58:56;;;;;;;38.10;21.95;;;;;;;13.08;47.52;97460.19;5007258;28;20029;-77
2021/03/10 11:01:22;;;;;;;37.63;20.98;;;;;;;12.98;48.84;97460.13;5011177;28;20026;-76
2021/03/10 11:03:47;;;;;;;35.88;21.25;;;;;;;13.34;47.60;97465.59;5024820;28;20037;-76
2021/03/10 11:06:14;;;;;;;37.58;21.75;;;;;;;13.24;47.15;97456.59;5001146;28;20029;-76
2021/03/10 11:08:40;;;;;;;40.47;22.90;;;;;;;13.21;46.52;97451.91;5018270;28;20387;-77
2021/03/10 11:11:05;;;;;;;42.28;22.65;;;;;;;13.25;48.27;97450.34;5013328;28;20029;-77
2021/03/10 11:13:34;;;;;;;37.38;22.40;;;;;;;13.48;47.26;97451.78;5016923;28;20484;-77
2021/03/10 11:16:00;;;;;;;37.65;20.17;;;;;;;13.75;45.38;97458.69;5017578;28;20040;-77
2021/03/10 11:18:26;;;;;;;39.05;22.48;;;;;;;13.90;45.00;97457.13;4989396;28;20033;-76
2021/03/10 11:20:52;;;;;;;39.08;22.83;;;;;;;13.67;46.66;97446.88;5009700;28;20056;-77
2021/03/10 11:23:18;;;;;;;31.73;19.90;;;;;;;13.31;46.68;97443.31;5001671;28;20041;-77
2021/03/10 11:25:44;;;;;;;34.22;19.17;;;;;;;13.69;46.11;97436.16;5014099;28;20030;-76
2021/03/10 11:28:10;;;;;;;33.80;19.83;;;;;;;13.68;45.22;97435.38;5019056;28;20032;-76